Time,TemperatureF,DewpointF,PressureIn,WindDirection,WindDirectionDegrees,WindSpeedMPH,WindSpeedGustMPH,Humidity,HourlyPrecipIn,Conditions,Clouds,dailyrainin,SoftwareType,DateUTC
2013-09-30 00:04:00,55.1,47.0,29.53,SW,229,9.0,9.0,74,0.00,,,1.13,Wunderground v.1.15,2013-09-30 07:04:00,
2013-09-30 00:09:00,55.1,46.2,29.54,SSW,202,8.0,8.0,72,0.00,,,0.00,Wunderground v.1.15,2013-09-30 07:09:00,
2013-09-30 00:15:00,55.1,46.2,29.53,SSW,200,7.0,8.0,72,0.00,,,0.00,Wunderground v.1.15,2013-09-30 07:15:00,
2013-09-30 00:20:00,55.2,46.3,29.53,SW,221,6.0,6.0,72,0.00,,,0.00,Wunderground v.1.15,2013-09-30 07:20:00,
2013-09-30 00:24:00,55.3,46.4,29.53,SSE,166,5.0,10.0,72,0.00,,,0.00,Wunderground v.1.15,2013-09-30 07:24:00,
2013-09-30 00:30:00,55.5,46.6,29.54,South,176,8.0,8.0,72,0.00,,,0.00,Wunderground v.1.15,2013-09-30 07:30:00,
2013-09-30 00:35:00,55.6,46.0,29.53,SSW,192,8.0,8.0,70,0.00,,,0.00,Wunderground v.1.15,2013-09-30 07:35:00,
2013-09-30 00:40:00,55.8,46.2,29.54,South,178,9.0,9.0,70,0.00,,,0.00,Wunderground v.1.15,2013-09-30 07:40:00,
2013-09-30 00:45:00,55.7,46.4,29.53,WSW,252,8.0,9.0,71,0.00,,,0.00,Wunderground v.1.15,2013-09-30 07:45:00,
2013-09-30 00:50:00,55.7,46.4,29.54,SW,232,5.0,11.0,71,0.00,,,0.00,Wunderground v.1.15,2013-09-30 07:50:00,
2013-09-30 00:55:00,55.6,46.3,29.54,SW,229,7.0,11.0,71,0.00,,,0.00,Wunderground v.1.15,2013-09-30 07:55:00,
2013-09-30 01:05:00,55.5,46.6,29.53,SSW,194,6.0,8.0,72,0.00,,,0.00,Wunderground v.1.15,2013-09-30 08:05:00,
2013-09-30 01:10:00,55.6,47.1,29.54,SE,145,7.0,15.0,73,0.00,,,0.00,Wunderground v.1.15,2013-09-30 08:10:00,
2013-09-30 01:14:00,55.0,46.9,29.54,South,169,11.0,15.0,74,0.00,,,0.00,Wunderground v.1.15,2013-09-30 08:14:00,
2013-09-30 01:20:00,54.9,46.4,29.53,South,185,13.0,13.0,73,0.00,,,0.00,Wunderground v.1.15,2013-09-30 08:20:00,
2013-09-30 01:25:00,55.2,47.1,29.53,SE,130,10.0,13.0,74,0.00,,,0.00,Wunderground v.1.15,2013-09-30 08:25:00,
2013-09-30 01:30:00,55.2,46.7,29.54,South,172,8.0,9.0,73,0.00,,,0.00,Wunderground v.1.15,2013-09-30 08:30:00,
2013-09-30 01:35:00,55.1,46.2,29.53,WSW,247,10.0,10.0,72,0.00,,,0.00,Wunderground v.1.15,2013-09-30 08:35:00,
2013-09-30 01:40:00,55.4,46.9,29.54,South,178,12.0,13.0,73,0.00,,,0.00,Wunderground v.1.15,2013-09-30 08:40:00,
2013-09-30 01:50:00,55.7,46.4,29.54,SW,232,12.0,14.0,71,0.00,,,0.00,Wunderground v.1.15,2013-09-30 08:50:00,
2013-09-30 01:55:00,55.9,46.6,29.54,South,169,9.0,14.0,71,0.00,,,0.00,Wunderground v.1.15,2013-09-30 08:55:00,
2013-09-30 02:00:00,56.1,46.8,29.54,SSE,167,11.0,13.0,71,0.00,,,0.00,Wunderground v.1.15,2013-09-30 09:00:00,
2013-09-30 02:05:00,55.9,47.4,29.54,SSW,202,12.0,17.0,73,0.00,,,0.01,Wunderground v.1.15,2013-09-30 09:05:00,
2013-09-30 02:10:00,55.8,47.6,29.55,South,183,12.0,12.0,74,0.00,,,0.01,Wunderground v.1.15,2013-09-30 09:10:00,
2013-09-30 02:15:00,55.6,47.8,29.55,South,174,12.0,12.0,75,0.00,,,0.01,Wunderground v.1.15,2013-09-30 09:15:00,
2013-09-30 02:20:00,55.2,48.1,29.55,South,169,11.0,11.0,77,0.00,,,0.01,Wunderground v.1.15,2013-09-30 09:20:00,
2013-09-30 02:25:00,55.0,47.9,29.56,SW,225,10.0,11.0,77,0.00,,,0.02,Wunderground v.1.15,2013-09-30 09:25:00,
2013-09-30 02:30:00,54.6,48.2,29.56,South,171,9.0,11.0,79,0.00,,,0.02,Wunderground v.1.15,2013-09-30 09:30:00,
2013-09-30 02:35:00,54.7,48.3,29.58,SW,221,9.0,11.0,79,0.07,,,0.03,Wunderground v.1.15,2013-09-30 09:35:00,
2013-09-30 02:40:00,54.6,48.2,29.58,SSW,213,8.0,8.0,79,0.12,,,0.04,Wunderground v.1.15,2013-09-30 09:40:00,
2013-09-30 02:45:00,54.5,48.8,29.58,West,267,6.0,9.0,81,0.23,,,0.06,Wunderground v.1.15,2013-09-30 09:45:00,
2013-09-30 02:50:00,54.1,48.4,29.57,West,269,6.0,8.0,81,1.01,,,0.08,Wunderground v.1.15,2013-09-30 09:50:00,
2013-09-30 02:55:00,53.7,48.7,29.58,WSW,251,7.0,8.0,83,0.70,,,0.11,Wunderground v.1.15,2013-09-30 09:55:00,
2013-09-30 03:00:00,53.3,48.6,29.58,SW,214,6.0,6.0,84,0.20,,,0.13,Wunderground v.1.15,2013-09-30 10:00:00,
2013-09-30 03:05:00,53.1,49.0,29.58,SSW,197,4.0,7.0,86,0.09,,,0.13,Wunderground v.1.15,2013-09-30 10:05:00,
2013-09-30 03:10:00,53.6,48.6,29.58,SSE,153,5.0,7.0,83,0.07,,,0.14,Wunderground v.1.15,2013-09-30 10:10:00,
2013-09-30 03:20:00,53.8,48.4,29.57,SW,220,7.0,7.0,82,0.11,,,0.16,Wunderground v.1.15,2013-09-30 10:20:00,
2013-09-30 03:25:00,54.0,48.3,29.57,West,263,6.0,7.0,81,0.06,,,0.16,Wunderground v.1.15,2013-09-30 10:25:00,
2013-09-30 03:30:00,54.1,48.4,29.57,SSE,148,4.0,9.0,81,0.04,,,0.16,Wunderground v.1.15,2013-09-30 10:30:00,
2013-09-30 03:40:00,54.8,48.7,29.58,South,179,7.0,7.0,80,0.00,,,0.16,Wunderground v.1.15,2013-09-30 10:40:00,
2013-09-30 03:45:00,54.9,48.2,29.58,SSW,211,6.0,7.0,78,0.00,,,0.16,Wunderground v.1.15,2013-09-30 10:45:00,
2013-09-30 03:50:00,55.1,48.4,29.58,SSW,195,7.0,7.0,78,0.00,,,0.16,Wunderground v.1.15,2013-09-30 10:50:00,
2013-09-30 03:55:00,55.2,48.8,29.57,South,180,8.0,8.0,79,0.00,,,0.16,Wunderground v.1.15,2013-09-30 10:55:00,
2013-09-30 04:00:00,55.2,49.1,29.57,South,175,8.0,13.0,80,0.00,,,0.16,Wunderground v.1.15,2013-09-30 11:00:00,
2013-09-30 04:05:00,55.2,49.1,29.58,South,169,10.0,13.0,80,0.00,,,0.16,Wunderground v.1.15,2013-09-30 11:05:00,
2013-09-30 04:09:00,55.3,49.2,29.59,WSW,242,9.0,9.0,80,0.00,,,0.16,Wunderground v.1.15,2013-09-30 11:09:00,
2013-09-30 04:15:00,55.3,49.2,29.59,South,183,8.0,12.0,80,0.16,,,0.18,Wunderground v.1.15,2013-09-30 11:15:00,
2013-09-30 04:20:00,55.7,49.3,29.59,South,180,9.0,14.0,79,0.07,,,0.18,Wunderground v.1.15,2013-09-30 11:20:00,
2013-09-30 04:25:00,55.9,49.1,29.59,SW,231,10.0,14.0,78,0.04,,,0.18,Wunderground v.1.15,2013-09-30 11:25:00,
2013-09-30 04:30:00,56.0,48.9,29.59,South,169,9.0,14.0,77,0.00,,,0.18,Wunderground v.1.15,2013-09-30 11:30:00,
2013-09-30 04:35:00,56.1,49.0,29.59,SW,223,9.0,14.0,77,0.00,,,0.18,Wunderground v.1.15,2013-09-30 11:35:00,
2013-09-30 04:40:00,56.2,49.1,29.59,SW,230,9.0,10.0,77,0.00,,,0.18,Wunderground v.1.15,2013-09-30 11:40:00,
2013-09-30 04:50:00,56.2,49.1,29.60,SW,234,10.0,10.0,77,0.00,,,0.18,Wunderground v.1.15,2013-09-30 11:50:00,
2013-09-30 04:55:00,55.7,48.6,29.61,SW,234,9.0,13.0,77,0.23,,,0.20,Wunderground v.1.15,2013-09-30 11:55:00,
2013-09-30 05:00:00,55.5,48.4,29.60,SW,221,11.0,11.0,77,0.08,,,0.20,Wunderground v.1.15,2013-09-30 12:00:00,
2013-09-30 05:05:00,55.6,48.5,29.60,WSW,248,12.0,12.0,77,0.05,,,0.20,Wunderground v.1.15,2013-09-30 12:05:00,
2013-09-30 05:09:00,55.7,48.6,29.60,SW,222,10.0,10.0,77,0.00,,,0.20,Wunderground v.1.15,2013-09-30 12:09:00,
2013-09-30 05:15:00,56.0,48.5,29.60,SW,229,9.0,10.0,76,0.00,,,0.20,Wunderground v.1.15,2013-09-30 12:15:00,
2013-09-30 05:20:00,56.0,48.5,29.61,South,190,8.0,8.0,76,0.00,,,0.20,Wunderground v.1.15,2013-09-30 12:20:00,
2013-09-30 05:25:00,56.0,48.5,29.60,South,190,8.0,9.0,76,0.00,,,0.20,Wunderground v.1.15,2013-09-30 12:25:00,
2013-09-30 05:34:00,56.0,48.9,29.61,SSW,192,8.0,9.0,77,0.00,,,0.20,Wunderground v.1.15,2013-09-30 12:34:00,
2013-09-30 05:40:00,56.2,49.4,29.61,West,268,8.0,8.0,78,0.00,,,0.20,Wunderground v.1.15,2013-09-30 12:40:00,
2013-09-30 05:45:00,56.3,49.2,29.61,West,261,8.0,8.0,77,0.00,,,0.21,Wunderground v.1.15,2013-09-30 12:45:00,
2013-09-30 05:50:00,56.4,48.9,29.61,SW,223,9.0,9.0,76,0.00,,,0.21,Wunderground v.1.15,2013-09-30 12:50:00,
2013-09-30 05:55:00,56.4,48.9,29.62,South,169,8.0,9.0,76,0.00,,,0.21,Wunderground v.1.15,2013-09-30 12:55:00,
2013-09-30 06:00:00,56.5,49.0,29.62,SSE,164,9.0,12.0,76,0.00,,,0.21,Wunderground v.1.15,2013-09-30 13:00:00,
2013-09-30 06:05:00,56.4,48.6,29.63,SSW,200,9.0,12.0,75,0.00,,,0.21,Wunderground v.1.15,2013-09-30 13:05:00,
2013-09-30 06:10:00,56.3,48.1,29.63,South,186,8.0,8.0,74,0.00,,,0.21,Wunderground v.1.15,2013-09-30 13:10:00,
2013-09-30 06:20:00,56.2,48.0,29.63,SW,223,6.0,10.0,74,0.00,,,0.21,Wunderground v.1.15,2013-09-30 13:20:00,
2013-09-30 06:25:00,56.3,48.5,29.64,SW,232,7.0,10.0,75,0.00,,,0.21,Wunderground v.1.15,2013-09-30 13:25:00,
2013-09-30 06:30:00,56.2,48.7,29.64,South,170,8.0,10.0,76,0.00,,,0.21,Wunderground v.1.15,2013-09-30 13:30:00,
2013-09-30 06:35:00,56.2,48.7,29.65,SSW,199,8.0,10.0,76,0.00,,,0.21,Wunderground v.1.15,2013-09-30 13:35:00,
2013-09-30 06:40:00,56.3,48.8,29.65,South,191,9.0,9.0,76,0.00,,,0.21,Wunderground v.1.15,2013-09-30 13:40:00,
2013-09-30 06:45:00,56.4,48.9,29.65,WSW,250,10.0,12.0,76,0.00,,,0.21,Wunderground v.1.15,2013-09-30 13:45:00,
2013-09-30 06:50:00,56.4,48.6,29.65,WSW,247,9.0,10.0,75,0.00,,,0.21,Wunderground v.1.15,2013-09-30 13:50:00,
2013-09-30 06:55:00,56.4,48.9,29.66,WSW,256,8.0,10.0,76,0.00,,,0.21,Wunderground v.1.15,2013-09-30 13:55:00,
2013-09-30 07:00:00,56.5,49.0,29.66,SW,230,8.0,8.0,76,0.00,,,0.21,Wunderground v.1.15,2013-09-30 14:00:00,
2013-09-30 07:05:00,56.5,48.7,29.66,SSW,199,8.0,9.0,75,0.00,,,0.21,Wunderground v.1.15,2013-09-30 14:05:00,
2013-09-30 07:10:00,56.5,49.0,29.66,West,267,10.0,10.0,76,0.00,,,0.21,Wunderground v.1.15,2013-09-30 14:10:00,
2013-09-30 07:14:00,56.4,48.6,29.67,SW,227,11.0,11.0,75,0.00,,,0.21,Wunderground v.1.15,2013-09-30 14:14:00,
2013-09-30 07:20:00,56.5,48.7,29.66,WSW,251,9.0,19.0,75,0.00,,,0.21,Wunderground v.1.15,2013-09-30 14:20:00,
2013-09-30 07:25:00,56.4,48.6,29.67,SW,215,8.0,19.0,75,0.00,,,0.21,Wunderground v.1.15,2013-09-30 14:25:00,
2013-09-30 07:30:00,56.3,48.1,29.68,SSE,147,7.0,10.0,74,0.00,,,0.21,Wunderground v.1.15,2013-09-30 14:30:00,
2013-09-30 07:34:00,56.1,47.9,29.68,South,169,8.0,10.0,74,0.00,,,0.21,Wunderground v.1.15,2013-09-30 14:34:00,
2013-09-30 07:40:00,56.1,47.9,29.68,South,191,10.0,10.0,74,0.00,,,0.21,Wunderground v.1.15,2013-09-30 14:40:00,
2013-09-30 07:45:00,56.1,48.3,29.68,South,178,9.0,10.0,75,0.00,,,0.21,Wunderground v.1.15,2013-09-30 14:45:00,
2013-09-30 07:50:00,56.1,48.3,29.68,SSW,208,9.0,9.0,75,0.00,,,0.21,Wunderground v.1.15,2013-09-30 14:50:00,
2013-09-30 07:55:00,56.0,48.2,29.69,SW,234,8.0,14.0,75,0.00,,,0.21,Wunderground v.1.15,2013-09-30 14:55:00,
2013-09-30 08:00:00,56.1,48.3,29.69,West,259,7.0,12.0,75,0.00,,,0.21,Wunderground v.1.15,2013-09-30 15:00:00,
2013-09-30 08:05:00,56.2,48.4,29.69,SSW,200,8.0,12.0,75,0.00,,,0.21,Wunderground v.1.15,2013-09-30 15:05:00,
2013-09-30 08:10:00,56.2,48.0,29.69,SW,221,8.0,8.0,74,0.00,,,0.21,Wunderground v.1.15,2013-09-30 15:10:00,
2013-09-30 08:15:00,56.2,48.0,29.70,West,272,5.0,13.0,74,0.00,,,0.21,Wunderground v.1.15,2013-09-30 15:15:00,
2013-09-30 08:20:00,56.4,48.6,29.71,SW,229,6.0,9.0,75,0.00,,,0.21,Wunderground v.1.15,2013-09-30 15:20:00,
2013-09-30 08:25:00,56.5,48.7,29.71,WSW,249,9.0,9.0,75,0.00,,,0.21,Wunderground v.1.15,2013-09-30 15:25:00,
2013-09-30 08:30:00,56.5,48.7,29.71,WSW,248,10.0,10.0,75,0.00,,,0.21,Wunderground v.1.15,2013-09-30 15:30:00,
2013-09-30 08:35:00,56.5,48.7,29.71,SW,236,10.0,17.0,75,0.00,,,0.21,Wunderground v.1.15,2013-09-30 15:35:00,
2013-09-30 08:40:00,56.5,48.3,29.71,SSW,206,9.0,9.0,74,0.00,,,0.21,Wunderground v.1.15,2013-09-30 15:40:00,
2013-09-30 08:45:00,56.5,48.3,29.71,SW,217,10.0,12.0,74,0.00,,,0.21,Wunderground v.1.15,2013-09-30 15:45:00,
2013-09-30 08:50:00,56.5,48.7,29.71,SW,231,9.0,9.0,75,0.00,,,0.22,Wunderground v.1.15,2013-09-30 15:50:00,
2013-09-30 08:55:00,56.3,48.5,29.71,WSW,244,9.0,14.0,75,0.00,,,0.22,Wunderground v.1.15,2013-09-30 15:55:00,
2013-09-30 09:00:00,56.2,48.7,29.71,WSW,237,8.0,8.0,76,0.00,,,0.22,Wunderground v.1.15,2013-09-30 16:00:00,
2013-09-30 09:05:00,56.3,48.5,29.71,South,178,8.0,11.0,75,0.00,,,0.22,Wunderground v.1.15,2013-09-30 16:05:00,
2013-09-30 09:15:00,56.5,49.0,29.72,SE,146,7.0,16.0,76,0.00,,,0.22,Wunderground v.1.15,2013-09-30 16:15:00,
2013-09-30 09:20:00,56.6,48.8,29.73,South,188,7.0,7.0,75,0.00,,,0.22,Wunderground v.1.15,2013-09-30 16:20:00,
2013-09-30 09:25:00,56.7,49.2,29.73,WNW,286,6.0,8.0,76,0.00,,,0.22,Wunderground v.1.15,2013-09-30 16:25:00,
2013-09-30 09:30:00,56.8,49.3,29.74,SSE,162,7.0,8.0,76,0.00,,,0.22,Wunderground v.1.15,2013-09-30 16:30:00,
2013-09-30 09:35:00,56.6,48.4,29.74,South,172,8.0,8.0,74,0.00,,,0.22,Wunderground v.1.15,2013-09-30 16:35:00,
2013-09-30 09:40:00,56.2,48.0,29.75,WSW,240,7.0,7.0,74,0.00,,,0.22,Wunderground v.1.15,2013-09-30 16:40:00,
2013-09-30 09:45:00,56.0,47.8,29.75,SW,232,7.0,7.0,74,0.00,,,0.22,Wunderground v.1.15,2013-09-30 16:45:00,
2013-09-30 09:50:00,56.0,47.8,29.75,SSE,151,6.0,6.0,74,0.00,,,0.22,Wunderground v.1.15,2013-09-30 16:50:00,
2013-09-30 09:55:00,56.1,48.3,29.76,SW,222,6.0,7.0,75,0.00,,,0.22,Wunderground v.1.15,2013-09-30 16:55:00,
2013-09-30 09:59:00,56.2,48.4,29.76,SW,223,6.0,6.0,75,0.00,,,0.22,Wunderground v.1.15,2013-09-30 16:59:00,
2013-09-30 10:05:00,56.3,48.5,29.76,SSE,150,6.0,10.0,75,0.00,,,0.22,Wunderground v.1.15,2013-09-30 17:05:00,
2013-09-30 10:10:00,56.4,48.6,29.76,SW,232,6.0,6.0,75,0.00,,,0.22,Wunderground v.1.15,2013-09-30 17:10:00,
2013-09-30 10:20:00,56.6,48.8,29.76,WSW,243,6.0,6.0,75,0.00,,,0.22,Wunderground v.1.15,2013-09-30 17:20:00,
2013-09-30 10:25:00,56.7,48.9,29.77,SSW,209,5.0,10.0,75,0.00,,,0.22,Wunderground v.1.15,2013-09-30 17:25:00,
2013-09-30 10:30:00,56.6,48.4,29.77,SW,233,6.0,7.0,74,0.00,,,0.22,Wunderground v.1.15,2013-09-30 17:30:00,
2013-09-30 10:35:00,56.4,47.9,29.78,SW,236,8.0,8.0,73,0.00,,,0.22,Wunderground v.1.15,2013-09-30 17:35:00,
2013-09-30 10:40:00,56.2,49.1,29.80,WSW,254,7.0,7.0,77,0.00,,,0.22,Wunderground v.1.15,2013-09-30 17:40:00,
2013-09-30 10:50:00,54.5,47.4,29.79,West,260,10.0,10.0,77,0.00,,,0.23,Wunderground v.1.15,2013-09-30 17:50:00,
2013-09-30 10:55:00,54.3,46.9,29.80,WSW,257,8.0,10.0,76,0.00,,,0.23,Wunderground v.1.15,2013-09-30 17:55:00,
2013-09-30 11:00:00,54.3,47.6,29.80,WSW,247,6.0,9.0,78,0.00,,,0.23,Wunderground v.1.15,2013-09-30 18:00:00,
2013-09-30 11:05:00,54.4,46.6,29.80,South,174,7.0,9.0,75,0.00,,,0.23,Wunderground v.1.15,2013-09-30 18:05:00,
2013-09-30 11:10:00,54.5,47.1,29.80,West,263,8.0,8.0,76,0.00,,,0.23,Wunderground v.1.15,2013-09-30 18:10:00,
2013-09-30 11:15:00,54.6,47.9,29.80,South,186,6.0,8.0,78,0.00,,,0.23,Wunderground v.1.15,2013-09-30 18:15:00,
2013-09-30 11:25:00,55.0,48.3,29.80,WSW,246,6.0,6.0,78,0.00,,,0.23,Wunderground v.1.15,2013-09-30 18:25:00,
2013-09-30 11:35:00,55.6,47.8,29.80,SSE,162,6.0,10.0,75,0.00,,,0.23,Wunderground v.1.15,2013-09-30 18:35:00,
2013-09-30 11:40:00,56.0,48.2,29.80,South,169,6.0,6.0,75,0.00,,,0.23,Wunderground v.1.15,2013-09-30 18:40:00,
2013-09-30 11:45:00,56.3,48.1,29.80,SSW,205,6.0,6.0,74,0.00,,,0.23,Wunderground v.1.15,2013-09-30 18:45:00,
2013-09-30 11:50:00,56.6,48.0,29.80,West,260,5.0,5.0,73,0.00,,,0.23,Wunderground v.1.15,2013-09-30 18:50:00,
2013-09-30 11:55:00,57.2,49.0,29.81,SSE,154,4.0,5.0,74,0.00,,,0.23,Wunderground v.1.15,2013-09-30 18:55:00,
2013-09-30 12:00:00,57.7,49.5,29.81,SW,218,3.0,4.0,74,0.00,,,0.23,Wunderground v.1.15,2013-09-30 19:00:00,
2013-09-30 12:05:00,57.7,48.7,29.82,SSW,200,3.0,4.0,72,0.00,,,0.23,Wunderground v.1.15,2013-09-30 19:05:00,
2013-09-30 12:10:00,57.4,48.4,29.82,South,189,5.0,17.0,72,0.00,,,0.23,Wunderground v.1.15,2013-09-30 19:10:00,
2013-09-30 12:15:00,56.7,48.1,29.82,South,188,9.0,17.0,73,0.00,,,0.23,Wunderground v.1.15,2013-09-30 19:15:00,
2013-09-30 12:20:00,56.4,47.9,29.82,SSE,150,10.0,10.0,73,0.00,,,0.23,Wunderground v.1.15,2013-09-30 19:20:00,
2013-09-30 12:25:00,56.0,46.7,29.83,SW,219,9.0,10.0,71,0.00,,,0.23,Wunderground v.1.15,2013-09-30 19:25:00,
2013-09-30 12:30:00,55.6,47.1,29.83,South,180,8.0,8.0,73,0.00,,,0.23,Wunderground v.1.15,2013-09-30 19:30:00,
2013-09-30 12:34:00,55.2,47.1,29.83,SSW,200,7.0,8.0,74,0.00,,,0.23,Wunderground v.1.15,2013-09-30 19:34:00,
2013-09-30 12:40:00,55.2,47.4,29.83,WSW,238,8.0,13.0,75,0.00,,,0.23,Wunderground v.1.15,2013-09-30 19:40:00,
2013-09-30 12:45:00,55.6,47.4,29.83,SW,218,10.0,13.0,74,0.00,,,0.23,Wunderground v.1.15,2013-09-30 19:45:00,
2013-09-30 12:50:00,55.8,48.0,29.84,SSW,207,10.0,10.0,75,0.00,,,0.23,Wunderground v.1.15,2013-09-30 19:50:00,
2013-09-30 12:55:00,55.9,47.7,29.84,WSW,249,9.0,12.0,74,0.00,,,0.23,Wunderground v.1.15,2013-09-30 19:55:00,
2013-09-30 13:00:00,56.0,47.5,29.84,SW,217,10.0,10.0,73,0.00,,,0.23,Wunderground v.1.15,2013-09-30 20:00:00,
2013-09-30 13:04:00,56.1,47.6,29.84,SSW,213,9.0,10.0,73,0.00,,,0.23,Wunderground v.1.15,2013-09-30 20:04:00,
2013-09-30 13:10:00,56.1,47.6,29.85,West,259,9.0,9.0,73,0.00,,,0.23,Wunderground v.1.15,2013-09-30 20:10:00,
2013-09-30 13:15:00,55.8,47.3,29.85,WSW,242,10.0,10.0,73,0.00,,,0.23,Wunderground v.1.15,2013-09-30 20:15:00,
2013-09-30 13:20:00,55.8,46.9,29.85,South,181,12.0,12.0,72,0.00,,,0.23,Wunderground v.1.15,2013-09-30 20:20:00,
2013-09-30 13:25:00,55.8,46.9,29.86,WSW,244,11.0,12.0,72,0.00,,,0.23,Wunderground v.1.15,2013-09-30 20:25:00,
2013-09-30 13:35:00,54.5,46.7,29.85,SSE,167,9.0,22.0,75,0.12,,,0.25,Wunderground v.1.15,2013-09-30 20:35:00,
2013-09-30 13:40:00,54.8,46.7,29.85,SW,220,9.0,9.0,74,0.09,,,0.25,Wunderground v.1.15,2013-09-30 20:40:00,
2013-09-30 13:50:00,55.3,47.2,29.86,West,262,8.0,8.0,74,0.04,,,0.25,Wunderground v.1.15,2013-09-30 20:50:00,
2013-09-30 13:55:00,55.4,46.5,29.86,WSW,252,7.0,8.0,72,0.00,,,0.25,Wunderground v.1.15,2013-09-30 20:55:00,
2013-09-30 14:00:00,55.6,46.7,29.86,SW,227,7.0,9.0,72,0.00,,,0.25,Wunderground v.1.15,2013-09-30 21:00:00,
2013-09-30 14:05:00,55.8,46.5,29.86,WSW,241,9.0,9.0,71,0.00,,,0.25,Wunderground v.1.15,2013-09-30 21:05:00,
2013-09-30 14:10:00,56.2,47.3,29.86,SW,231,9.0,9.0,72,0.00,,,0.25,Wunderground v.1.15,2013-09-30 21:10:00,
2013-09-30 14:15:00,56.4,46.7,29.86,SW,228,9.0,9.0,70,0.00,,,0.25,Wunderground v.1.15,2013-09-30 21:15:00,
2013-09-30 14:20:00,56.5,46.8,29.86,SW,228,7.0,10.0,70,0.00,,,0.25,Wunderground v.1.15,2013-09-30 21:20:00,
2013-09-30 14:25:00,56.5,46.8,29.86,WSW,246,7.0,10.0,70,0.00,,,0.25,Wunderground v.1.15,2013-09-30 21:25:00,
2013-09-30 14:30:00,56.8,47.1,29.86,WNW,282,7.0,8.0,70,0.00,,,0.25,Wunderground v.1.15,2013-09-30 21:30:00,
2013-09-30 14:35:00,56.9,47.2,29.86,WSW,252,8.0,13.0,70,0.00,,,0.25,Wunderground v.1.15,2013-09-30 21:35:00,
2013-09-30 14:40:00,57.2,47.5,29.87,South,183,9.0,11.0,70,0.00,,,0.25,Wunderground v.1.15,2013-09-30 21:40:00,
2013-09-30 14:45:00,57.2,47.1,29.87,SSW,195,8.0,11.0,69,0.00,,,0.25,Wunderground v.1.15,2013-09-30 21:45:00,
2013-09-30 14:50:00,57.0,46.9,29.87,SSW,212,8.0,8.0,69,0.00,,,0.25,Wunderground v.1.15,2013-09-30 21:50:00,
2013-09-30 14:55:00,56.6,47.3,29.88,South,190,9.0,16.0,71,0.00,,,0.25,Wunderground v.1.15,2013-09-30 21:55:00,
2013-09-30 15:00:00,55.8,47.3,29.89,SW,234,9.0,9.0,73,0.00,,,0.26,Wunderground v.1.15,2013-09-30 22:00:00,
2013-09-30 15:04:00,54.9,46.4,29.89,WSW,240,10.0,11.0,73,0.00,,,0.26,Wunderground v.1.15,2013-09-30 22:04:00,
2013-09-30 15:10:00,54.7,46.9,29.88,SW,215,9.0,9.0,75,0.00,,,0.26,Wunderground v.1.15,2013-09-30 22:10:00,
2013-09-30 15:15:00,54.8,46.3,29.88,NW,317,9.0,9.0,73,0.00,,,0.26,Wunderground v.1.15,2013-09-30 22:15:00,
2013-09-30 15:20:00,55.1,47.0,29.89,WSW,258,9.0,9.0,74,0.00,,,0.26,Wunderground v.1.15,2013-09-30 22:20:00,
2013-09-30 15:25:00,55.1,47.0,29.89,West,266,8.0,9.0,74,0.00,,,0.26,Wunderground v.1.15,2013-09-30 22:25:00,
2013-09-30 15:30:00,54.9,47.1,29.89,WSW,250,8.0,8.0,75,0.00,,,0.26,Wunderground v.1.15,2013-09-30 22:30:00,
2013-09-30 15:35:00,55.1,48.0,29.89,WSW,244,8.0,17.0,77,0.00,,,0.26,Wunderground v.1.15,2013-09-30 22:35:00,
2013-09-30 15:40:00,55.5,48.1,29.89,South,187,8.0,8.0,76,0.00,,,0.26,Wunderground v.1.15,2013-09-30 22:40:00,
2013-09-30 15:45:00,55.8,47.6,29.89,SW,231,9.0,9.0,74,0.00,,,0.26,Wunderground v.1.15,2013-09-30 22:45:00,
2013-09-30 15:50:00,55.9,47.4,29.89,WSW,242,9.0,9.0,73,0.00,,,0.26,Wunderground v.1.15,2013-09-30 22:50:00,
2013-09-30 15:55:00,56.0,48.2,29.88,WSW,254,8.0,10.0,75,0.00,,,0.26,Wunderground v.1.15,2013-09-30 22:55:00,
2013-09-30 15:59:00,55.9,47.7,29.88,WSW,254,9.0,12.0,74,0.00,,,0.26,Wunderground v.1.15,2013-09-30 22:59:00,
2013-09-30 16:04:00,55.9,48.1,29.89,West,263,10.0,12.0,75,0.00,,,0.26,Wunderground v.1.15,2013-09-30 23:04:00,
2013-09-30 16:10:00,55.7,47.2,29.89,SSE,166,9.0,9.0,73,0.00,,,0.26,Wunderground v.1.15,2013-09-30 23:10:00,
2013-09-30 16:15:00,55.2,46.7,29.90,WSW,238,9.0,9.0,73,0.47,,,0.28,Wunderground v.1.15,2013-09-30 23:15:00,
2013-09-30 16:20:00,54.4,47.0,29.90,SW,225,10.0,11.0,76,0.13,,,0.29,Wunderground v.1.15,2013-09-30 23:20:00,
2013-09-30 16:30:00,54.9,47.1,29.90,SSW,207,9.0,9.0,75,0.05,,,0.29,Wunderground v.1.15,2013-09-30 23:30:00,
2013-09-30 16:34:00,55.2,47.4,29.89,SW,221,7.0,9.0,75,0.04,,,0.29,Wunderground v.1.15,2013-09-30 23:34:00,
2013-09-30 16:40:00,55.4,47.2,29.89,SSW,192,6.0,8.0,74,0.00,,,0.29,Wunderground v.1.15,2013-09-30 23:40:00,
2013-09-30 16:45:00,55.4,46.5,29.89,WSW,256,7.0,8.0,72,0.00,,,0.29,Wunderground v.1.15,2013-09-30 23:45:00,
2013-09-30 16:50:00,55.6,46.7,29.89,SW,221,8.0,8.0,72,0.00,,,0.29,Wunderground v.1.15,2013-09-30 23:50:00,
2013-09-30 16:54:00,55.8,47.3,29.90,WSW,242,7.0,8.0,73,0.00,,,0.29,Wunderground v.1.15,2013-09-30 23:54:00,
2013-09-30 17:00:00,56.0,47.1,29.90,WSW,239,7.0,7.0,72,0.00,,,0.29,Wunderground v.1.15,2013-10-01 00:00:00,
2013-09-30 17:05:00,55.9,46.6,29.90,SW,223,7.0,7.0,71,0.00,,,0.29,Wunderground v.1.15,2013-10-01 00:05:00,
2013-09-30 17:10:00,55.8,47.3,29.90,SW,232,7.0,7.0,73,0.00,,,0.29,Wunderground v.1.15,2013-10-01 00:10:00,
2013-09-30 17:15:00,55.9,47.0,29.90,WSW,248,7.0,7.0,72,0.00,,,0.29,Wunderground v.1.15,2013-10-01 00:15:00,
2013-09-30 17:20:00,55.7,47.2,29.90,SSW,192,7.0,7.0,73,0.00,,,0.29,Wunderground v.1.15,2013-10-01 00:20:00,
2013-09-30 17:25:00,55.5,46.2,29.90,SW,223,7.0,8.0,71,0.00,,,0.29,Wunderground v.1.15,2013-10-01 00:25:00,
2013-09-30 17:30:00,55.5,47.0,29.90,SW,216,5.0,5.0,73,0.00,,,0.29,Wunderground v.1.15,2013-10-01 00:30:00,
2013-09-30 17:35:00,55.6,46.7,29.91,SSE,161,5.0,5.0,72,0.00,,,0.29,Wunderground v.1.15,2013-10-01 00:35:00,
2013-09-30 17:40:00,55.6,47.1,29.91,WSW,252,6.0,21.0,73,0.00,,,0.29,Wunderground v.1.15,2013-10-01 00:40:00,
2013-09-30 17:45:00,55.1,44.3,29.91,West,267,11.0,21.0,67,0.00,,,0.29,Wunderground v.1.15,2013-10-01 00:45:00,
2013-09-30 17:49:00,54.5,44.2,29.91,West,272,15.0,15.0,68,0.00,,,0.29,Wunderground v.1.15,2013-10-01 00:49:00,
2013-09-30 17:55:00,54.0,44.1,29.91,West,274,13.0,15.0,69,0.00,,,0.29,Wunderground v.1.15,2013-10-01 00:55:00,
2013-09-30 17:59:00,54.0,44.4,29.91,West,277,9.0,9.0,70,0.00,,,0.29,Wunderground v.1.15,2013-10-01 00:59:00,
2013-09-30 18:05:00,54.0,45.5,29.91,West,266,6.0,9.0,73,0.00,,,0.29,Wunderground v.1.15,2013-10-01 01:05:00,
2013-09-30 18:10:00,54.1,45.6,29.91,WSW,254,5.0,5.0,73,0.00,,,0.29,Wunderground v.1.15,2013-10-01 01:10:00,
2013-09-30 18:15:00,54.5,46.4,29.92,West,265,5.0,8.0,74,0.00,,,0.29,Wunderground v.1.15,2013-10-01 01:15:00,
2013-09-30 18:20:00,54.1,46.3,29.92,WNW,297,7.0,9.0,75,0.00,,,0.29,Wunderground v.1.15,2013-10-01 01:20:00,
2013-09-30 18:25:00,53.6,46.6,29.92,South,184,8.0,9.0,77,0.00,,,0.29,Wunderground v.1.15,2013-10-01 01:25:00,
2013-09-30 18:30:00,53.7,46.7,29.92,SW,235,6.0,6.0,77,0.00,,,0.29,Wunderground v.1.15,2013-10-01 01:30:00,
2013-09-30 18:35:00,53.9,47.2,29.92,SW,221,5.0,6.0,78,0.00,,,0.29,Wunderground v.1.15,2013-10-01 01:35:00,
2013-09-30 18:40:00,54.0,47.3,29.92,SSW,198,5.0,5.0,78,0.00,,,0.29,Wunderground v.1.15,2013-10-01 01:40:00,
2013-09-30 18:45:00,54.2,47.5,29.92,SW,225,5.0,5.0,78,0.00,,,0.29,Wunderground v.1.15,2013-10-01 01:45:00,
2013-09-30 18:50:00,54.2,47.1,29.92,SSW,213,3.0,3.0,77,0.00,,,0.29,Wunderground v.1.15,2013-10-01 01:50:00,
2013-09-30 18:55:00,54.2,46.8,29.92,SSW,209,3.0,8.0,76,0.00,,,0.29,Wunderground v.1.15,2013-10-01 01:55:00,
2013-09-30 19:00:00,54.4,46.6,29.92,West,268,5.0,7.0,75,0.00,,,0.29,Wunderground v.1.15,2013-10-01 02:00:00,
2013-09-30 19:05:00,54.5,46.4,29.93,SW,232,5.0,7.0,74,0.00,,,0.29,Wunderground v.1.15,2013-10-01 02:05:00,
2013-09-30 19:10:00,54.5,46.7,29.93,West,275,5.0,7.0,75,0.00,,,0.30,Wunderground v.1.15,2013-10-01 02:10:00,
2013-09-30 19:15:00,54.2,47.1,29.94,SSE,166,5.0,7.0,77,0.50,,,0.32,Wunderground v.1.15,2013-10-01 02:15:00,
2013-09-30 19:20:00,53.3,47.3,29.94,SSE,167,4.0,4.0,80,0.14,,,0.33,Wunderground v.1.15,2013-10-01 02:20:00,
2013-09-30 19:25:00,52.7,47.4,29.93,SSE,167,3.0,4.0,82,0.06,,,0.33,Wunderground v.1.15,2013-10-01 02:25:00,
2013-09-30 19:34:00,51.8,47.4,29.93,SSW,200,1.0,2.0,85,0.00,,,0.33,Wunderground v.1.15,2013-10-01 02:34:00,
2013-09-30 19:40:00,51.6,46.9,29.94,NW,320,1.0,4.0,84,0.00,,,0.33,Wunderground v.1.15,2013-10-01 02:40:00,
2013-09-30 19:45:00,51.5,47.1,29.94,SW,234,3.0,4.0,85,0.00,,,0.33,Wunderground v.1.15,2013-10-01 02:45:00,
2013-09-30 19:50:00,52.0,47.3,29.94,WNW,283,3.0,3.0,84,0.00,,,0.33,Wunderground v.1.15,2013-10-01 02:50:00,
2013-09-30 19:54:00,51.7,46.7,29.94,SSE,152,2.0,3.0,83,0.00,,,0.33,Wunderground v.1.15,2013-10-01 02:54:00,
2013-09-30 20:00:00,51.6,46.3,29.94,SSE,152,2.0,5.0,82,0.00,,,0.33,Wunderground v.1.15,2013-10-01 03:00:00,
2013-09-30 20:05:00,52.5,46.2,29.94,South,175,4.0,9.0,79,0.00,,,0.33,Wunderground v.1.15,2013-10-01 03:05:00,
2013-09-30 20:10:00,52.9,46.2,29.94,SSE,168,6.0,6.0,78,0.00,,,0.33,Wunderground v.1.15,2013-10-01 03:10:00,
2013-09-30 20:15:00,53.0,46.0,29.94,SSE,157,5.0,6.0,77,0.00,,,0.33,Wunderground v.1.15,2013-10-01 03:15:00,
2013-09-30 20:20:00,53.0,45.6,29.94,SE,140,5.0,5.0,76,0.00,,,0.33,Wunderground v.1.15,2013-10-01 03:20:00,
2013-09-30 20:25:00,53.0,45.6,29.94,SE,127,5.0,5.0,76,0.00,,,0.33,Wunderground v.1.15,2013-10-01 03:25:00,
2013-09-30 20:30:00,52.9,46.2,29.95,SE,133,5.0,6.0,78,0.00,,,0.33,Wunderground v.1.15,2013-10-01 03:30:00,
2013-09-30 20:35:00,52.8,46.1,29.95,SSE,149,4.0,6.0,78,0.00,,,0.33,Wunderground v.1.15,2013-10-01 03:35:00,
2013-09-30 20:40:00,52.2,45.9,29.95,SSE,167,3.0,3.0,79,0.00,,,0.33,Wunderground v.1.15,2013-10-01 03:40:00,
2013-09-30 20:50:00,50.4,45.4,29.95,SSE,147,1.0,1.0,83,0.00,,,0.33,Wunderground v.1.15,2013-10-01 03:50:00,
2013-09-30 20:55:00,49.9,45.6,29.95,SSE,147,1.0,2.0,85,0.00,,,0.33,Wunderground v.1.15,2013-10-01 03:55:00,
2013-09-30 21:00:00,49.7,45.7,29.95,ESE,115,2.0,2.0,86,0.00,,,0.33,Wunderground v.1.15,2013-10-01 04:00:00,
2013-09-30 21:04:00,49.7,45.7,29.95,ENE,78,2.0,2.0,86,0.00,,,0.33,Wunderground v.1.15,2013-10-01 04:04:00,
2013-09-30 21:10:00,49.7,46.0,29.95,ENE,76,1.0,1.0,87,0.00,,,0.33,Wunderground v.1.15,2013-10-01 04:10:00,
2013-09-30 21:15:00,49.5,46.1,29.95,ENE,76,1.0,1.0,88,0.00,,,0.33,Wunderground v.1.15,2013-10-01 04:15:00,
2013-09-30 21:20:00,49.4,46.0,29.95,ENE,76,1.0,1.0,88,0.00,,,0.33,Wunderground v.1.15,2013-10-01 04:20:00,
2013-09-30 21:30:00,49.2,46.1,29.94,ENE,76,0.0,0.0,89,0.00,,,0.33,Wunderground v.1.15,2013-10-01 04:30:00,
2013-09-30 21:35:00,49.3,46.5,29.94,SE,144,1.0,3.0,90,0.00,,,0.33,Wunderground v.1.15,2013-10-01 04:35:00,
2013-09-30 21:40:00,49.7,46.9,29.94,SE,126,2.0,4.0,90,0.00,,,0.33,Wunderground v.1.15,2013-10-01 04:40:00,
2013-09-30 21:50:00,50.3,47.5,29.95,SE,128,3.0,4.0,90,0.00,,,0.33,Wunderground v.1.15,2013-10-01 04:50:00,
2013-09-30 21:55:00,50.6,47.8,29.96,SE,145,4.0,9.0,90,0.00,,,0.33,Wunderground v.1.15,2013-10-01 04:55:00,
2013-09-30 22:00:00,50.6,46.3,29.95,SSW,200,6.0,9.0,85,0.00,,,0.34,Wunderground v.1.15,2013-10-01 05:00:00,
2013-09-30 22:04:00,51.5,45.5,29.95,South,180,9.0,13.0,80,0.00,,,0.34,Wunderground v.1.15,2013-10-01 05:04:00,
2013-09-30 22:15:00,52.2,45.5,29.95,SSE,154,10.0,11.0,78,0.00,,,0.34,Wunderground v.1.15,2013-10-01 05:15:00,
2013-09-30 22:20:00,52.6,45.9,29.95,SSE,161,10.0,13.0,78,0.00,,,0.34,Wunderground v.1.15,2013-10-01 05:20:00,
2013-09-30 22:25:00,52.4,46.4,29.95,SE,130,10.0,13.0,80,0.00,,,0.34,Wunderground v.1.15,2013-10-01 05:25:00,
2013-09-30 22:30:00,51.9,46.9,29.95,East,85,8.0,8.0,83,0.00,,,0.34,Wunderground v.1.15,2013-10-01 05:30:00,
2013-09-30 22:35:00,51.6,47.5,29.95,SE,125,5.0,8.0,86,0.00,,,0.34,Wunderground v.1.15,2013-10-01 05:35:00,
2013-09-30 22:40:00,50.9,46.9,29.95,ENE,76,2.0,4.0,86,0.00,,,0.34,Wunderground v.1.15,2013-10-01 05:40:00,
2013-09-30 22:45:00,50.2,46.2,29.95,ESE,112,2.0,4.0,86,0.00,,,0.34,Wunderground v.1.15,2013-10-01 05:45:00,
2013-09-30 22:50:00,49.6,46.2,29.95,East,83,2.0,2.0,88,0.00,,,0.34,Wunderground v.1.15,2013-10-01 05:50:00,
2013-09-30 22:55:00,49.4,46.3,29.95,ESE,104,2.0,2.0,89,0.00,,,0.34,Wunderground v.1.15,2013-10-01 05:55:00,
2013-09-30 23:00:00,49.1,46.0,29.95,East,94,2.0,2.0,89,0.00,,,0.34,Wunderground v.1.15,2013-10-01 06:00:00,
2013-09-30 23:05:00,48.9,45.8,29.95,ESE,106,2.0,2.0,89,0.00,,,0.34,Wunderground v.1.15,2013-10-01 06:05:00,
2013-09-30 23:10:00,48.8,45.7,29.95,ESE,109,1.0,1.0,89,0.00,,,0.34,Wunderground v.1.15,2013-10-01 06:10:00,
2013-09-30 23:15:00,48.7,45.6,29.95,ESE,109,1.0,2.0,89,0.00,,,0.34,Wunderground v.1.15,2013-10-01 06:15:00,
2013-09-30 23:20:00,48.5,45.4,29.95,ESE,108,1.0,1.0,89,0.00,,,0.34,Wunderground v.1.15,2013-10-01 06:20:00,
2013-09-30 23:25:00,48.6,45.8,29.95,ESE,109,1.0,1.0,90,0.00,,,0.34,Wunderground v.1.15,2013-10-01 06:25:00,
2013-09-30 23:30:00,48.6,45.8,29.95,ESE,102,1.0,1.0,90,0.00,,,0.34,Wunderground v.1.15,2013-10-01 06:30:00,
2013-09-30 23:35:00,48.7,45.9,29.95,ESE,111,2.0,2.0,90,0.00,,,0.34,Wunderground v.1.15,2013-10-01 06:35:00,
2013-09-30 23:40:00,48.7,45.9,29.95,East,99,2.0,2.0,90,0.00,,,0.34,Wunderground v.1.15,2013-10-01 06:40:00,
2013-09-30 23:44:00,48.7,45.9,29.95,ESE,108,2.0,2.0,90,0.00,,,0.34,Wunderground v.1.15,2013-10-01 06:44:00,
2013-09-30 23:50:00,48.6,45.8,29.95,East,94,2.0,2.0,90,0.00,,,0.34,Wunderground v.1.15,2013-10-01 06:50:00,
2013-09-30 23:55:00,48.5,45.7,29.95,East,94,2.0,2.0,90,0.00,,,0.34,Wunderground v.1.15,2013-10-01 06:55:00,